KDAL/DAL METAR and TAF weather

Enter ICAO airport designator
Station Type Date Time Source
KDAL METAR 2021/02/27 02:53 UTC NOAA

KDAL 270253Z 12003KT 10SM FEW021 BKN200 BKN250 13/09 A2992 RMK AO2 SLP128 T01330094 53014


Station Type Date Time Source
KDAL Decoded METAR 2021/02/27 02:53 UTC NOAA

DALLAS LOVE FIELD, TX, United States (KDAL) 32-51N 096-51W 158M
Feb 26, 2021 - 09:53 PM EST / 2021.02.27 0253 UTC
Wind: from the ESE (120 degrees) at 3 MPH (3 KT):0
Visibility: 10 mile(s):0
Sky conditions: mostly cloudy
Temperature: 55.9 F (13.3 C)
Dew Point: 48.9 F (9.4 C)
Relative Humidity: 77%
Pressure (altimeter): 29.92 in. Hg (1013 hPa)
Pressure tendency: 0.04 inches (1.4 hPa) higher than three hours ago
ob: KDAL 270253Z 12003KT 10SM FEW021 BKN200 BKN250 13/09 A2992 RMK AO2 SLP128 T01330094 53014
cycle: 3

Station Type Date Time Source
KDAL TAF 2021/02/27 03:04 UTC NOAA

TAF
AMD KDAL 270301Z 2703/2724 14005KT P6SM SCT012 OVC250
TEMPO 2706/2710 BKN012
FM271000 12006KT 5SM BR BKN009
FM271300 14007KT 2SM BR OVC005
TEMPO 2713/2717 1/2SM -RA FG OVC003
FM271700 14010KT 3SM BR VCSH OVC007

Example: see airport list